Time,TemperatureF,DewpointF,PressureIn,WindDirection,WindDirectionDegrees,WindSpeedMPH,WindSpeedGustMPH,Humidity,HourlyPrecipIn,Conditions,Clouds,dailyrainin,SoftwareType,DateUTC
2013-04-24 00:00:00,30.4,13.9,30.14,ESE,109,2.0,9.0,50,0.00,CLR,,0.00,WeatherDisplay:10.37,2013-04-24 06:00:00,
2013-04-24 00:30:00,29.6,13.7,30.14,ESE,116,5.0,10.0,51,0.00,CLR,,0.00,WeatherDisplay:10.37,2013-04-24 06:30:00,
2013-04-24 01:00:00,29.7,14.7,30.14,SE,131,2.0,10.0,53,0.00,CLR,,0.00,WeatherDisplay:10.37,2013-04-24 07:00:00,
2013-04-24 01:30:00,28.1,14.0,30.14,SE,133,1.0,5.0,55,0.00,CLR,,0.00,WeatherDisplay:10.37,2013-04-24 07:30:00,
2013-04-24 02:00:00,27.2,14.0,30.14,ESE,122,1.0,5.0,57,0.00,CLR,,0.00,WeatherDisplay:10.37,2013-04-24 08:00:00,
2013-04-24 02:30:00,26.3,13.1,30.14,SE,129,3.0,6.0,57,0.00,CLR,,0.00,WeatherDisplay:10.37,2013-04-24 08:30:00,
2013-04-24 03:00:00,25.7,13.8,30.14,ESE,121,2.0,6.0,60,0.00,CLR,,0.00,WeatherDisplay:10.37,2013-04-24 09:00:00,
2013-04-24 03:30:00,25.7,13.7,30.14,ESE,123,2.0,5.0,60,0.00,CLR,,0.00,WeatherDisplay:10.37,2013-04-24 09:30:00,
2013-04-24 04:00:00,26.1,13.7,30.15,ESE,105,0.0,6.0,59,0.00,CLR,,0.00,WeatherDisplay:10.37,2013-04-24 10:00:00,
2013-04-24 04:30:00,26.0,14.4,30.16,ESE,105,0.0,4.0,61,0.00,CLR,,0.00,WeatherDisplay:10.37,2013-04-24 10:30:00,
2013-04-24 05:00:00,26.1,14.8,30.17,ESE,105,2.0,5.0,62,0.00,CLR,,0.00,WeatherDisplay:10.37,2013-04-24 11:00:00,
2013-04-24 05:30:00,24.9,15.4,30.17,ESE,106,0.0,5.0,67,0.00,CLR,,0.00,WeatherDisplay:10.37,2013-04-24 11:30:00,
2013-04-24 06:00:00,25.4,14.9,30.18,ESE,120,0.0,5.0,64,0.00,CLR,,0.00,WeatherDisplay:10.37,2013-04-24 12:00:00,
2013-04-24 06:30:00,24.8,15.4,30.18,ESE,118,0.0,6.0,67,0.00,CLR,,0.00,WeatherDisplay:10.37,2013-04-24 12:30:00,
2013-04-24 07:00:00,24.7,15.3,30.20,SE,132,0.0,4.0,67,0.00,CLR,,0.00,WeatherDisplay:10.37,2013-04-24 13:00:00,
2013-04-24 07:30:00,28.2,15.3,30.22,SE,132,0.0,0.0,58,0.00,CLR,,0.00,WeatherDisplay:10.37,2013-04-24 13:30:00,
2013-04-24 08:00:00,30.5,15.8,30.23,SE,127,0.0,0.0,54,0.00,CLR,,0.00,WeatherDisplay:10.37,2013-04-24 14:00:00,
2013-04-24 08:30:00,34.6,17.9,30.23,ESE,115,0.0,3.0,50,0.00,CLR,,0.00,WeatherDisplay:10.37,2013-04-24 14:30:00,
2013-04-24 09:00:00,36.3,16.4,30.24,ESE,111,0.0,0.0,44,0.00,CLR,,0.00,WeatherDisplay:10.37,2013-04-24 15:00:00,
2013-04-24 09:30:00,37.8,15.0,30.24,NNW,328,0.0,6.0,39,0.00,CLR,,0.00,WeatherDisplay:10.37,2013-04-24 15:30:00,
2013-04-24 10:00:00,43.7,17.1,30.24,WSW,250,1.0,3.0,34,0.00,CLR,,0.00,WeatherDisplay:10.37,2013-04-24 16:00:00,
2013-04-24 10:30:00,45.1,17.6,30.23,WNW,291,0.0,7.0,33,0.00,CLR,,0.00,WeatherDisplay:10.37,2013-04-24 16:30:00,
2013-04-24 11:00:00,48.7,15.3,30.23,West,266,1.0,8.0,26,0.00,CLR,,0.00,WeatherDisplay:10.37,2013-04-24 17:00:00,
2013-04-24 11:30:00,50.0,17.3,30.24,SW,235,1.0,13.0,27,0.00,CLR,,0.00,WeatherDisplay:10.37,2013-04-24 17:30:00,
2013-04-24 12:00:00,51.9,18.0,30.23,WSW,238,1.0,14.0,26,0.00,CLR,,0.00,WeatherDisplay:10.37,2013-04-24 18:00:00,
2013-04-24 12:30:00,53.6,16.6,30.22,SW,230,1.0,13.0,23,0.00,CLR,,0.00,WeatherDisplay:10.37,2013-04-24 18:30:00,
2013-04-24 13:00:00,54.9,17.8,30.22,West,273,0.0,12.0,23,0.00,CLR,,0.00,WeatherDisplay:10.37,2013-04-24 19:00:00,
2013-04-24 13:30:00,55.7,19.4,30.20,WSW,245,1.0,12.0,24,0.00,CLR,,0.00,WeatherDisplay:10.37,2013-04-24 19:30:00,
2013-04-24 14:00:00,58.2,18.4,30.20,SW,222,0.0,12.0,21,0.00,CLR,,0.00,WeatherDisplay:10.37,2013-04-24 20:00:00,
2013-04-24 14:30:00,58.9,20.1,30.19,South,191,0.0,10.0,22,0.00,CLR,,0.00,WeatherDisplay:10.37,2013-04-24 20:30:00,
2013-04-24 15:00:00,57.0,19.5,30.18,West,281,0.0,12.0,23,0.00,CLR,,0.00,WeatherDisplay:10.37,2013-04-24 21:00:00,
2013-04-24 15:30:00,55.3,19.1,30.17,North,358,0.0,12.0,24,0.00,CLR,,0.00,WeatherDisplay:10.37,2013-04-24 21:30:00,
2013-04-24 16:00:00,59.4,21.5,30.16,SSE,151,2.0,13.0,23,0.00,CLR,,0.00,WeatherDisplay:10.37,2013-04-24 22:00:00,
2013-04-24 16:30:00,59.4,21.5,30.15,WSW,246,0.0,12.0,23,0.00,CLR,,0.00,WeatherDisplay:10.37,2013-04-24 22:30:00,
2013-04-24 17:00:00,56.6,18.1,30.14,ENE,63,0.0,14.0,22,0.00,CLR,,0.00,WeatherDisplay:10.37,2013-04-24 23:00:00,
2013-04-24 17:30:00,59.0,17.9,30.14,WNW,285,0.0,10.0,20,0.00,CLR,,0.00,WeatherDisplay:10.37,2013-04-24 23:30:00,
2013-04-24 18:00:00,60.1,16.4,30.13,SSW,201,0.0,6.0,18,0.00,CLR,,0.00,WeatherDisplay:10.37,2013-04-25 00:00:00,
2013-04-24 18:30:00,59.5,17.1,30.13,SW,233,0.0,5.0,19,0.00,CLR,,0.00,WeatherDisplay:10.37,2013-04-25 00:30:00,
2013-04-24 19:00:00,59.2,18.1,30.12,WSW,240,0.0,1.0,20,0.00,CLR,,0.00,WeatherDisplay:10.37,2013-04-25 01:00:00,
2013-04-24 19:30:00,56.9,15.0,30.12,WSW,240,0.0,2.0,19,0.00,CLR,,0.00,WeatherDisplay:10.37,2013-04-25 01:30:00,
2013-04-24 20:00:00,50.4,18.5,30.13,NNE,22,0.0,4.0,28,0.00,CLR,,0.00,WeatherDisplay:10.37,2013-04-25 02:00:00,
2013-04-24 20:30:00,43.7,18.4,30.14,ESE,108,3.0,7.0,36,0.00,CLR,,0.00,WeatherDisplay:10.37,2013-04-25 02:30:00,
2013-04-24 21:00:00,42.2,18.4,30.15,ESE,115,0.0,7.0,38,0.00,CLR,,0.00,WeatherDisplay:10.37,2013-04-25 03:00:00,
2013-04-24 21:30:00,38.9,17.2,30.15,ESE,104,2.0,7.0,41,0.00,CLR,,0.00,WeatherDisplay:10.37,2013-04-25 03:30:00,
2013-04-24 22:00:00,39.6,16.6,30.15,ESE,111,6.0,12.0,39,0.00,CLR,,0.00,WeatherDisplay:10.37,2013-04-25 04:00:00,
2013-04-24 22:30:00,37.9,16.8,30.15,ESE,108,7.0,10.0,42,0.00,CLR,,0.00,WeatherDisplay:10.37,2013-04-25 04:30:00,
2013-04-24 23:00:00,37.5,17.0,30.15,ESE,120,2.0,12.0,43,0.00,CLR,,0.00,WeatherDisplay:10.37,2013-04-25 05:00:00,
2013-04-24 23:30:00,35.2,17.4,30.13,ESE,108,5.0,7.0,48,0.00,CLR,,0.00,WeatherDisplay:10.37,2013-04-25 05:30:00,